createdAt,value
2022-10-22T00:01:54.636Z,0.19
2022-10-22T00:04:23.282Z,0.20
2022-10-22T00:06:51.818Z,0.19
2022-10-22T00:09:21.965Z,0.15
2022-10-22T00:11:50.838Z,0.18
2022-10-22T00:14:19.363Z,0.20
2022-10-22T00:16:48.011Z,0.17
2022-10-22T00:19:16.900Z,0.20
2022-10-22T00:21:45.608Z,0.15
2022-10-22T00:24:14.315Z,0.23
2022-10-22T00:26:44.403Z,0.16
2022-10-22T00:29:13.107Z,0.20
2022-10-22T00:31:41.687Z,0.16
2022-10-22T00:34:10.305Z,0.18
2022-10-22T00:36:38.867Z,0.21
2022-10-22T00:39:07.481Z,0.20
2022-10-22T00:41:36.038Z,0.20
2022-10-22T00:44:07.470Z,0.22
2022-10-22T00:46:36.060Z,0.20
2022-10-22T00:49:06.085Z,0.18
2022-10-22T00:51:37.575Z,0.21
2022-10-22T00:54:10.200Z,0.26
2022-10-22T00:56:39.613Z,0.25
2022-10-22T00:59:10.142Z,0.28
2022-10-22T01:01:38.649Z,0.31
2022-10-22T01:04:07.478Z,0.33
2022-10-22T01:06:36.089Z,0.29
2022-10-22T01:09:17.180Z,0.30
2022-10-22T01:11:54.974Z,0.19
2022-10-22T01:14:32.891Z,0.18
2022-10-22T01:17:09.926Z,0.20
2022-10-22T01:19:56.519Z,0.21
2022-10-22T01:22:33.065Z,0.21
2022-10-22T01:25:09.749Z,0.19
2022-10-22T01:28:01.831Z,0.16
2022-10-22T01:30:32.469Z,0.15
2022-10-22T01:33:06.369Z,0.17
2022-10-22T01:35:38.842Z,0.18
2022-10-22T01:38:11.372Z,0.16
2022-10-22T01:40:40.437Z,0.16
2022-10-22T01:43:11.720Z,0.16
2022-10-22T01:45:47.169Z,0.15
2022-10-22T01:48:28.253Z,0.16
2022-10-22T01:51:13.083Z,0.13
2022-10-22T01:53:52.123Z,0.15
2022-10-22T01:56:36.681Z,0.13
2022-10-22T01:59:14.170Z,0.10
2022-10-22T02:01:55.234Z,0.30
2022-10-22T02:04:29.677Z,0.37
2022-10-22T02:07:03.432Z,0.49
2022-10-22T02:09:34.264Z,0.57
2022-10-22T02:14:43.189Z,0.66
2022-10-22T02:17:18.551Z,0.70
2022-10-22T02:19:54.322Z,0.75
2022-10-22T02:22:23.257Z,0.79
2022-10-22T02:24:51.976Z,0.84
2022-10-22T02:27:26.988Z,0.98
2022-10-22T02:30:03.525Z,0.95
2022-10-22T02:32:38.462Z,0.97
2022-10-22T02:35:08.721Z,1.04
2022-10-22T02:37:38.502Z,1.02
2022-10-22T02:40:08.112Z,0.98
2022-10-22T02:42:38.225Z,1.02
2022-10-22T02:45:08.187Z,1.14
2022-10-22T02:47:38.141Z,1.09
2022-10-22T02:50:10.291Z,1.12
2022-10-22T02:52:39.859Z,1.13
2022-10-22T02:55:09.386Z,1.19
2022-10-22T02:57:38.484Z,1.18
2022-10-22T03:00:09.006Z,1.17
2022-10-22T03:02:39.780Z,1.42
2022-10-22T03:05:16.904Z,1.34
2022-10-22T03:07:46.765Z,1.37
2022-10-22T03:10:16.242Z,1.31
2022-10-22T03:12:51.526Z,1.44
2022-10-22T03:15:24.139Z,1.50
2022-10-22T03:17:57.479Z,1.56
2022-10-22T03:20:26.517Z,1.52
2022-10-22T03:22:58.866Z,1.53
2022-10-22T03:25:31.344Z,1.53
2022-10-22T03:28:07.046Z,1.58
2022-10-22T03:30:35.984Z,1.70
2022-10-22T03:33:16.342Z,1.72
2022-10-22T03:35:49.537Z,1.73
2022-10-22T03:38:21.017Z,1.73
2022-10-22T03:40:53.105Z,1.66
2022-10-22T03:43:25.059Z,1.75
2022-10-22T03:45:56.682Z,1.61
2022-10-22T03:48:27.258Z,1.61
2022-10-22T03:50:56.178Z,1.51
2022-10-22T03:53:25.107Z,1.37
2022-10-22T03:55:54.285Z,1.34
2022-10-22T03:58:23.219Z,1.38
2022-10-22T04:00:52.241Z,1.36
2022-10-22T04:03:21.247Z,1.32
2022-10-22T04:06:05.130Z,1.25
2022-10-22T04:08:34.447Z,1.12
2022-10-22T04:11:06.046Z,0.98
2022-10-22T04:13:35.128Z,0.83
2022-10-22T04:16:11.644Z,0.85
2022-10-22T04:18:41.648Z,0.73
2022-10-22T04:21:13.921Z,0.56
2022-10-22T04:23:50.197Z,0.54
2022-10-22T04:26:21.103Z,0.53
2022-10-22T04:28:51.084Z,0.41
2022-10-22T04:31:24.198Z,0.25
2022-10-22T04:34:01.161Z,0.31
2022-10-22T04:36:31.606Z,0.28
2022-10-22T04:39:05.667Z,0.30
2022-10-22T04:41:36.784Z,0.07
2022-10-22T04:44:06.507Z,-0.02
2022-10-22T04:46:37.507Z,-0.12
2022-10-22T04:49:08.619Z,-0.10
2022-10-22T04:51:39.019Z,-0.24
2022-10-22T04:54:07.903Z,-0.39
2022-10-22T04:56:36.978Z,-0.44
2022-10-22T04:59:08.277Z,-0.43
2022-10-22T05:01:42.898Z,-0.48
2022-10-22T05:04:14.444Z,-0.49
2022-10-22T05:06:44.656Z,-0.44
2022-10-22T05:09:15.679Z,-0.19
2022-10-22T05:11:48.828Z,0.10
2022-10-22T05:14:20.075Z,0.17
2022-10-22T05:16:49.456Z,0.25
2022-10-22T05:19:21.502Z,0.19
2022-10-22T05:21:51.825Z,0.29
2022-10-22T05:24:20.594Z,0.35
2022-10-22T05:26:51.325Z,0.20
2022-10-22T05:29:20.399Z,0.10
2022-10-22T05:31:49.462Z,0.19
2022-10-22T05:34:19.744Z,0.10
2022-10-22T05:36:48.610Z,-0.01
2022-10-22T05:39:18.783Z,0.05
2022-10-22T05:41:47.528Z,0.15
2022-10-22T05:44:16.466Z,0.10
2022-10-22T05:46:45.382Z,0.15
2022-10-22T05:49:16.227Z,0.20
2022-10-22T05:51:45.107Z,0.19
2022-10-22T05:54:20.453Z,0.23
2022-10-22T05:56:49.566Z,0.31
2022-10-22T05:59:18.215Z,0.52
2022-10-22T06:01:47.421Z,0.45
2022-10-22T06:04:17.191Z,0.61
2022-10-22T06:06:50.510Z,0.66
2022-10-22T06:09:23.997Z,0.80
2022-10-22T06:11:53.307Z,0.89
2022-10-22T06:14:23.135Z,0.81
2022-10-22T06:16:52.686Z,0.84
2022-10-22T06:19:23.410Z,1.06
2022-10-22T06:21:52.177Z,1.11
2022-10-22T06:24:22.807Z,1.07
2022-10-22T06:26:51.900Z,1.04
2022-10-22T06:29:22.997Z,1.11
2022-10-22T06:31:51.777Z,1.39
2022-10-22T06:34:20.872Z,1.41
2022-10-22T06:36:52.344Z,1.48
2022-10-22T06:39:25.454Z,1.63
2022-10-22T06:41:54.205Z,1.79
2022-10-22T06:44:22.947Z,1.78
2022-10-22T06:46:53.314Z,2.01
2022-10-22T06:49:22.947Z,2.02
2022-10-22T06:51:52.753Z,2.15
2022-10-22T06:54:21.645Z,2.04
2022-10-22T06:56:52.538Z,2.21
2022-10-22T06:59:21.399Z,2.29
2022-10-22T07:01:50.283Z,2.25
2022-10-22T07:04:19.075Z,2.47
2022-10-22T07:06:48.044Z,2.45
2022-10-22T07:11:52.105Z,2.67
2022-10-22T07:14:20.846Z,2.84
2022-10-22T07:17:00.151Z,2.74
2022-10-22T07:19:34.265Z,2.98
2022-10-22T07:22:03.094Z,3.03
2022-10-22T07:24:31.785Z,3.00
2022-10-22T07:27:02.407Z,3.15
2022-10-22T07:29:31.165Z,3.13
2022-10-22T07:31:59.714Z,3.15
2022-10-22T07:34:28.833Z,3.16
2022-10-22T07:36:57.945Z,3.25
2022-10-22T07:39:38.420Z,3.26
2022-10-22T07:42:08.564Z,3.26
2022-10-22T07:44:37.361Z,3.45
2022-10-22T07:47:06.623Z,3.55
2022-10-22T07:49:35.274Z,3.47
2022-10-22T07:52:04.149Z,3.47
2022-10-22T07:54:32.927Z,3.78
2022-10-22T07:57:01.669Z,3.85
2022-10-22T07:59:31.813Z,3.92
2022-10-22T08:02:00.533Z,3.92
2022-10-22T08:04:30.694Z,4.02
2022-10-22T08:06:59.264Z,3.94
2022-10-22T08:09:28.030Z,4.07
2022-10-22T08:11:56.919Z,4.12
2022-10-22T08:14:25.563Z,4.27
2022-10-22T08:16:55.980Z,4.28
2022-10-22T08:19:24.851Z,4.26
2022-10-22T08:21:53.678Z,4.45
2022-10-22T08:24:22.540Z,4.58
2022-10-22T08:26:51.122Z,4.53
2022-10-22T08:29:19.751Z,4.59
2022-10-22T08:31:48.445Z,4.63
2022-10-22T08:34:19.069Z,4.66
2022-10-22T08:36:48.475Z,4.69
2022-10-22T08:39:17.376Z,4.93
2022-10-22T08:41:57.708Z,4.87
2022-10-22T08:45:00.985Z,4.92
2022-10-22T08:47:46.973Z,5.03
2022-10-22T08:50:20.913Z,5.16
2022-10-22T08:52:55.175Z,5.18
2022-10-22T08:55:26.343Z,5.20
2022-10-22T08:58:00.723Z,5.33
2022-10-22T09:00:36.463Z,5.51
2022-10-22T09:03:27.212Z,5.60
2022-10-22T09:06:07.106Z,5.66
2022-10-22T09:08:38.045Z,5.81
2022-10-22T09:11:17.240Z,5.78
2022-10-22T09:13:47.391Z,5.75
2022-10-22T09:16:19.664Z,5.75
2022-10-22T09:18:59.534Z,5.70
2022-10-22T09:21:38.538Z,5.89
2022-10-22T09:24:13.698Z,5.91
2022-10-22T09:26:43.155Z,5.87
2022-10-22T09:29:21.064Z,6.00
2022-10-22T09:31:49.981Z,6.23
2022-10-22T09:34:23.105Z,6.20
2022-10-22T09:37:01.123Z,6.35
2022-10-22T09:39:33.363Z,6.42
2022-10-22T09:42:02.201Z,6.38
2022-10-22T09:44:34.305Z,6.46
2022-10-22T09:47:06.092Z,6.41
2022-10-22T09:49:37.651Z,6.39
2022-10-22T09:52:29.269Z,6.37
2022-10-22T09:54:58.125Z,6.37
2022-10-22T09:57:27.812Z,6.62
2022-10-22T09:59:57.783Z,6.70
2022-10-22T10:02:38.065Z,6.62
2022-10-22T10:05:08.541Z,6.55
2022-10-22T10:07:39.317Z,6.50
2022-10-22T10:10:18.281Z,6.70
2022-10-22T10:12:55.859Z,6.75
2022-10-22T10:15:29.651Z,6.70
2022-10-22T10:18:10.707Z,6.66
2022-10-22T10:20:48.662Z,6.66
2022-10-22T10:23:28.346Z,6.84
2022-10-22T10:26:02.872Z,6.61
2022-10-22T10:28:48.169Z,6.75
2022-10-22T10:31:27.086Z,6.77
2022-10-22T10:34:06.568Z,6.72
2022-10-22T10:36:46.701Z,6.86
2022-10-22T10:39:25.735Z,6.91
2022-10-22T10:42:03.162Z,6.90
2022-10-22T10:44:46.377Z,6.96
2022-10-22T10:47:32.653Z,6.97
2022-10-22T10:50:18.112Z,7.00
2022-10-22T10:52:56.630Z,6.83
2022-10-22T10:55:34.077Z,6.98
2022-10-22T10:58:16.689Z,6.89
2022-10-22T11:00:52.810Z,7.04
2022-10-22T11:03:48.033Z,7.02
2022-10-22T11:06:21.622Z,7.08
2022-10-22T11:08:59.462Z,7.03
2022-10-22T11:11:36.707Z,6.88
2022-10-22T11:14:12.762Z,6.93
2022-10-22T11:16:47.921Z,6.86
2022-10-22T11:19:46.164Z,6.83
2022-10-22T11:22:25.813Z,6.78
2022-10-22T11:25:00.885Z,6.91
2022-10-22T11:27:37.446Z,6.95
2022-10-22T11:30:12.942Z,7.01
2022-10-22T11:32:44.190Z,7.01
2022-10-22T11:35:20.215Z,6.92
2022-10-22T11:37:53.438Z,6.90
2022-10-22T11:40:31.658Z,6.77
2022-10-22T11:43:06.798Z,6.87
2022-10-22T11:45:39.085Z,6.86
2022-10-22T11:48:17.504Z,6.81
2022-10-22T11:50:53.125Z,7.03
2022-10-22T11:53:33.015Z,6.96
2022-10-22T11:56:24.016Z,7.13
2022-10-22T11:58:56.252Z,7.03
2022-10-22T12:01:28.719Z,7.08
2022-10-22T12:04:21.617Z,7.36
2022-10-22T12:07:01.801Z,7.23
2022-10-22T12:09:34.565Z,7.09
2022-10-22T12:12:16.916Z,7.09
2022-10-22T12:15:01.125Z,7.02
2022-10-22T12:17:31.138Z,7.29
2022-10-22T12:20:03.757Z,7.26
2022-10-22T12:22:37.308Z,7.25
2022-10-22T12:25:17.941Z,7.25
2022-10-22T12:27:53.639Z,7.31
2022-10-22T12:30:25.820Z,7.26
2022-10-22T12:32:56.524Z,7.30
2022-10-22T12:35:27.380Z,7.29
2022-10-22T12:37:58.279Z,7.17
2022-10-22T12:40:29.497Z,7.15
2022-10-22T12:43:00.446Z,7.07
2022-10-22T12:45:32.904Z,7.06
2022-10-22T12:48:04.538Z,7.09
2022-10-22T12:50:37.799Z,7.11
2022-10-22T12:53:07.600Z,7.22
2022-10-22T12:55:36.322Z,7.19
2022-10-22T12:58:07.642Z,7.30
2022-10-22T13:00:38.006Z,7.20
2022-10-22T13:03:08.418Z,7.28
2022-10-22T13:05:40.226Z,7.23
2022-10-22T13:08:11.954Z,7.15
2022-10-22T13:10:42.245Z,7.31
2022-10-22T13:13:32.786Z,6.97
2022-10-22T13:16:24.558Z,7.06
2022-10-22T13:18:54.653Z,7.00
2022-10-22T13:21:29.838Z,7.04
2022-10-22T13:24:02.024Z,6.88
2022-10-22T13:26:35.842Z,6.85
2022-10-22T13:29:11.281Z,6.88
2022-10-22T13:31:47.999Z,6.89
2022-10-22T13:34:20.898Z,6.88
2022-10-22T13:36:50.559Z,6.80
2022-10-22T13:39:20.287Z,6.79
2022-10-22T13:41:50.444Z,6.80
2022-10-22T13:44:19.936Z,6.66
2022-10-22T13:46:50.667Z,6.61
2022-10-22T13:49:22.742Z,6.48
2022-10-22T13:51:53.317Z,6.46
2022-10-22T13:54:25.657Z,6.50
2022-10-22T13:56:54.447Z,6.43
2022-10-22T13:59:23.999Z,6.36
2022-10-22T14:01:55.978Z,6.39
2022-10-22T14:04:24.862Z,6.31
2022-10-22T14:06:53.439Z,6.36
2022-10-22T14:09:22.508Z,6.17
2022-10-22T14:11:51.079Z,5.99
2022-10-22T14:14:19.644Z,5.99
2022-10-22T14:16:48.283Z,5.93
2022-10-22T14:19:19.677Z,5.87
2022-10-22T14:21:49.466Z,5.87
2022-10-22T14:24:18.019Z,5.74
2022-10-22T14:26:46.841Z,5.60
2022-10-22T14:29:16.000Z,5.52
2022-10-22T14:31:45.631Z,5.30
2022-10-22T14:34:15.981Z,5.25
2022-10-22T14:36:46.139Z,4.95
2022-10-22T14:39:15.046Z,4.81
2022-10-22T14:41:44.396Z,4.81
2022-10-22T14:44:14.909Z,4.74
2022-10-22T14:46:44.548Z,4.71
2022-10-22T14:49:13.383Z,4.41
2022-10-22T14:51:43.226Z,4.34
2022-10-22T14:54:13.180Z,4.28
2022-10-22T14:56:41.804Z,4.19
2022-10-22T14:59:10.381Z,4.02
2022-10-22T15:01:40.822Z,3.98
2022-10-22T15:04:09.865Z,3.96
2022-10-22T15:06:38.683Z,3.84
2022-10-22T15:09:07.416Z,3.67
2022-10-22T15:11:37.541Z,3.73
2022-10-22T15:14:06.467Z,3.55
2022-10-22T15:16:35.158Z,3.45
2022-10-22T15:19:03.760Z,3.33
2022-10-22T15:21:32.409Z,3.36
2022-10-22T15:24:02.461Z,3.36
2022-10-22T15:26:30.999Z,3.29
2022-10-22T15:29:01.346Z,3.30
2022-10-22T15:31:50.410Z,3.21
2022-10-22T15:34:23.696Z,3.18
2022-10-22T15:36:52.623Z,3.18
2022-10-22T15:39:21.401Z,3.02
2022-10-22T15:41:50.455Z,3.10
2022-10-22T15:44:22.343Z,3.08
2022-10-22T15:46:52.011Z,3.07
2022-10-22T15:49:20.718Z,3.18
2022-10-22T15:51:50.165Z,3.04
2022-10-22T15:54:20.324Z,3.06
2022-10-22T15:56:49.122Z,2.92
2022-10-22T15:59:19.890Z,2.77
2022-10-22T16:01:48.990Z,2.68
2022-10-22T16:04:18.003Z,2.70
2022-10-22T16:06:48.762Z,2.58
2022-10-22T16:09:19.352Z,2.53
2022-10-22T16:11:48.269Z,2.36
2022-10-22T16:14:20.062Z,2.40
2022-10-22T16:16:52.066Z,2.26
2022-10-22T16:19:22.846Z,2.18
2022-10-22T16:21:52.682Z,2.06
2022-10-22T16:24:22.062Z,2.00
2022-10-22T16:26:50.882Z,1.94
2022-10-22T16:29:19.565Z,1.91
2022-10-22T16:31:49.624Z,1.87
2022-10-22T16:34:18.412Z,1.81
2022-10-22T16:36:47.331Z,1.83
2022-10-22T16:39:16.638Z,1.77
2022-10-22T16:41:45.343Z,1.66
2022-10-22T16:44:13.912Z,1.75
2022-10-22T16:46:42.501Z,1.77
2022-10-22T16:49:14.743Z,1.69
2022-10-22T16:51:43.389Z,1.64
2022-10-22T16:54:13.629Z,1.78
2022-10-22T16:56:42.371Z,1.92
2022-10-22T16:59:11.014Z,2.06
2022-10-22T17:01:41.183Z,2.18
2022-10-22T17:04:11.638Z,2.15
2022-10-22T17:06:40.434Z,2.23
2022-10-22T17:09:09.430Z,2.15
2022-10-22T17:11:40.217Z,2.07
2022-10-22T17:14:11.512Z,2.25
2022-10-22T17:16:41.837Z,2.18
2022-10-22T17:19:16.003Z,1.79
2022-10-22T17:21:44.874Z,1.68
2022-10-22T17:24:13.798Z,1.60
2022-10-22T17:26:42.387Z,1.44
2022-10-22T17:29:10.992Z,1.50
2022-10-22T17:31:41.293Z,1.43
2022-10-22T17:34:16.250Z,1.17
2022-10-22T17:36:45.805Z,1.06
2022-10-22T17:39:17.882Z,1.19
2022-10-22T17:41:47.139Z,1.12
2022-10-22T17:44:18.081Z,1.15
2022-10-22T17:46:49.811Z,1.20
2022-10-22T17:49:21.780Z,1.18
2022-10-22T17:51:50.516Z,1.17
2022-10-22T17:54:19.174Z,1.03
2022-10-22T17:56:47.933Z,0.96
2022-10-22T17:59:18.079Z,0.96
2022-10-22T18:01:47.938Z,0.94
2022-10-22T18:04:19.087Z,0.88
2022-10-22T18:06:49.941Z,0.79
2022-10-22T18:09:20.237Z,0.71
2022-10-22T18:11:50.191Z,0.59
2022-10-22T18:14:19.724Z,0.76
2022-10-22T18:16:49.542Z,0.58
2022-10-22T18:19:20.479Z,0.46
2022-10-22T18:21:51.178Z,0.46
2022-10-22T18:24:19.923Z,0.40
2022-10-22T18:26:48.517Z,0.40
2022-10-22T18:29:20.023Z,0.37
2022-10-22T18:31:48.879Z,0.41
2022-10-22T18:34:20.451Z,0.32
2022-10-22T18:36:53.292Z,0.38
2022-10-22T18:39:21.897Z,0.31
2022-10-22T18:41:50.994Z,0.30
2022-10-22T18:44:19.820Z,0.33
2022-10-22T18:46:48.519Z,0.30
2022-10-22T18:49:20.455Z,0.31
2022-10-22T18:51:53.118Z,0.32
2022-10-22T18:54:24.437Z,0.38
2022-10-22T18:56:54.940Z,0.36
2022-10-22T18:59:28.072Z,0.31
2022-10-22T19:01:59.911Z,0.30
2022-10-22T19:04:33.370Z,0.49
2022-10-22T19:07:02.311Z,0.57
2022-10-22T19:09:32.772Z,0.66
2022-10-22T19:12:01.734Z,0.64
2022-10-22T19:14:30.350Z,0.61
2022-10-22T19:17:01.433Z,0.78
2022-10-22T19:19:30.374Z,0.39
2022-10-22T19:21:59.694Z,0.25
2022-10-22T19:24:28.639Z,0.15
2022-10-22T19:26:59.805Z,0.03
2022-10-22T19:29:28.483Z,0.03
2022-10-22T19:31:57.118Z,0.14
2022-10-22T19:34:25.921Z,0.10
2022-10-22T19:36:54.474Z,0.08
2022-10-22T19:39:22.997Z,0.18
2022-10-22T19:41:51.636Z,0.14
2022-10-22T19:44:21.837Z,0.08
2022-10-22T19:46:50.376Z,0.05
2022-10-22T19:49:22.078Z,0.03
2022-10-22T19:51:51.835Z,-0.02
2022-10-22T19:54:20.834Z,0.10
2022-10-22T19:56:49.709Z,0.04
2022-10-22T19:59:20.768Z,-0.12
2022-10-22T20:01:50.835Z,-0.16
2022-10-22T20:04:19.956Z,-0.21
2022-10-22T20:06:48.683Z,-0.17
2022-10-22T20:09:17.357Z,-0.23
2022-10-22T20:11:46.271Z,-0.24
2022-10-22T20:14:15.595Z,-0.22
2022-10-22T20:16:44.690Z,-0.20
2022-10-22T20:19:17.372Z,-0.17
2022-10-22T20:21:48.606Z,-0.19
2022-10-22T20:24:17.314Z,-0.16
2022-10-22T20:26:47.210Z,-0.26
2022-10-22T20:29:16.443Z,-0.21
2022-10-22T20:31:44.952Z,-0.37
2022-10-22T20:34:15.653Z,-0.13
2022-10-22T20:36:44.353Z,-0.30
2022-10-22T20:39:15.753Z,-0.31
2022-10-22T20:41:44.489Z,-0.39
2022-10-22T20:44:16.201Z,-0.37
2022-10-22T20:46:45.260Z,-0.49
2022-10-22T20:49:17.114Z,-0.46
2022-10-22T20:51:46.201Z,-0.44
2022-10-22T20:54:16.422Z,-0.34
2022-10-22T20:56:45.355Z,-0.37
2022-10-22T20:59:13.958Z,-0.34
2022-10-22T21:01:45.558Z,-0.40
2022-10-22T21:04:16.339Z,-0.35
2022-10-22T21:06:45.228Z,-0.37
2022-10-22T21:09:15.509Z,-0.38
2022-10-22T21:11:44.709Z,-0.43
2022-10-22T21:14:16.755Z,-0.44
2022-10-22T21:16:46.823Z,-0.43
2022-10-22T21:19:18.214Z,-0.40
2022-10-22T21:21:46.926Z,-0.39
2022-10-22T21:24:16.106Z,-0.43
2022-10-22T21:26:45.041Z,-0.42
2022-10-22T21:29:14.844Z,-0.51
2022-10-22T21:31:43.656Z,-0.41
2022-10-22T21:34:13.492Z,-0.44
2022-10-22T21:36:43.679Z,-0.45
2022-10-22T21:39:13.691Z,-0.48
2022-10-22T21:41:42.394Z,-0.45
2022-10-22T21:44:11.099Z,-0.45
2022-10-22T21:46:39.819Z,-0.43
2022-10-22T21:49:08.521Z,-0.38
2022-10-22T21:51:38.481Z,-0.41
2022-10-22T21:54:08.639Z,-0.48
2022-10-22T21:56:37.959Z,-0.44
2022-10-22T21:59:08.201Z,-0.50
2022-10-22T22:01:37.175Z,-0.53
2022-10-22T22:04:07.352Z,-0.48
2022-10-22T22:06:36.199Z,-0.56
2022-10-22T22:09:05.810Z,-0.56
2022-10-22T22:11:36.977Z,-0.48
2022-10-22T22:14:05.215Z,-0.38
2022-10-22T22:16:35.190Z,-0.27
2022-10-22T22:19:06.290Z,-0.32
2022-10-22T22:21:35.432Z,-0.32
2022-10-22T22:24:04.371Z,-0.33
2022-10-22T22:26:33.092Z,-0.33
2022-10-22T22:29:03.176Z,-0.36
2022-10-22T22:31:33.856Z,-0.51
2022-10-22T22:34:03.889Z,-0.46
2022-10-22T22:36:36.749Z,-0.49
2022-10-22T22:39:06.794Z,-0.62
2022-10-22T22:41:35.460Z,-0.57
2022-10-22T22:44:05.946Z,-0.55
2022-10-22T22:46:34.521Z,-0.67
2022-10-22T22:49:03.270Z,-0.67
2022-10-22T22:51:31.993Z,-0.73
2022-10-22T22:54:01.133Z,-0.74
2022-10-22T22:56:31.448Z,-0.75
2022-10-22T22:59:00.480Z,-0.81
2022-10-22T23:01:32.505Z,-0.82
2022-10-22T23:04:02.920Z,-0.79
2022-10-22T23:06:33.865Z,-0.83
2022-10-22T23:09:02.556Z,-0.95
2022-10-22T23:11:31.359Z,-0.90
2022-10-22T23:14:01.476Z,-0.95
2022-10-22T23:16:33.807Z,-0.93
2022-10-22T23:19:02.959Z,-1.03
2022-10-22T23:21:33.706Z,-1.04
2022-10-22T23:24:04.957Z,-1.06
2022-10-22T23:26:36.592Z,-1.02
2022-10-22T23:29:07.341Z,-1.06
2022-10-22T23:31:37.361Z,-1.11
2022-10-22T23:34:08.350Z,-1.09
2022-10-22T23:36:37.680Z,-1.18
2022-10-22T23:39:06.481Z,-1.16
2022-10-22T23:41:35.529Z,-1.19
2022-10-22T23:44:04.970Z,-1.24
2022-10-22T23:46:34.102Z,-1.25
2022-10-22T23:49:04.382Z,-1.30
2022-10-22T23:51:33.014Z,-1.28
2022-10-22T23:54:04.256Z,-1.36
2022-10-22T23:56:33.149Z,-1.35
2022-10-22T23:59:01.706Z,-1.31
